Time;durP1;ratioP1;P1;durP2;ratioP2;P2;SDS_P1;SDS_P2;PMS_P1;PMS_P2;Temp;Humidity;BMP_temperature;BMP_pressure;BME280_temperature;BME280_humidity;BME280_pressure;Samples;Min_cycle;Max_cycle;Signal;HPM_P1;HPM_P2
2022/05/16 00:00:16;;;;;;;13.48;3.53;;;;;;;17.39;55.61;101388.00;4996732;28;20026;-73
2022/05/16 00:02:41;;;;;;;10.35;2.97;;;;;;;17.43;55.06;101383.91;4996441;28;20069;-73
2022/05/16 00:05:08;;;;;;;12.52;3.10;;;;;;;17.21;55.38;101381.75;5012691;28;20084;-73
2022/05/16 00:07:34;;;;;;;12.20;3.40;;;;;;;17.30;55.66;101377.03;4996253;28;20022;-73
2022/05/16 00:10:00;;;;;;;10.65;3.70;;;;;;;17.27;55.14;101383.47;4996310;28;20519;-73
2022/05/16 00:12:25;;;;;;;17.15;4.13;;;;;;;17.23;55.95;101376.28;4996410;28;20361;-74
2022/05/16 00:14:50;;;;;;;12.15;3.67;;;;;;;17.07;56.10;101382.88;5014124;28;20105;-74
2022/05/16 00:17:16;;;;;;;12.98;3.25;;;;;;;17.23;55.74;101376.28;4995941;28;20112;-74
2022/05/16 00:19:42;;;;;;;18.95;3.92;;;;;;;17.31;55.15;101376.00;5013531;28;20030;-74
2022/05/16 00:22:08;;;;;;;10.30;3.30;;;;;;;17.13;56.87;101372.38;5013947;28;20030;-74
2022/05/16 00:24:33;;;;;;;15.50;3.53;;;;;;;17.12;56.33;101362.94;5013976;28;20025;-74
2022/05/16 00:26:59;;;;;;;14.77;3.05;;;;;;;17.08;56.68;101368.81;5013900;28;20088;-72
2022/05/16 00:29:25;;;;;;;12.38;3.50;;;;;;;17.12;56.37;101357.72;5013976;28;20026;-73
2022/05/16 00:31:53;;;;;;;12.90;3.35;;;;;;;17.22;55.51;101354.59;4996784;28;20022;-75
2022/05/16 00:34:20;;;;;;;12.27;3.25;;;;;;;17.16;56.33;101350.25;4996067;28;20018;-74
2022/05/16 00:36:49;;;;;;;13.55;3.28;;;;;;;17.16;56.22;101342.41;5013665;28;20677;-74
2022/05/16 00:39:19;;;;;;;13.07;3.60;;;;;;;17.01;57.60;101352.41;4995817;28;20030;-74
2022/05/16 00:41:44;;;;;;;11.13;4.22;;;;;;;16.94;57.17;101346.44;5013712;28;20330;-73
2022/05/16 00:44:10;;;;;;;13.23;3.17;;;;;;;16.91;57.51;101358.91;4996249;28;20026;-74
2022/05/16 00:46:36;;;;;;;14.05;3.45;;;;;;;17.02;57.07;101348.78;5013551;28;20032;-73
2022/05/16 00:49:07;;;;;;;11.07;3.63;;;;;;;17.04;56.50;101344.94;4998668;28;20022;-74
2022/05/16 00:51:38;;;;;;;13.35;3.72;;;;;;;17.06;56.15;101357.75;5016762;28;20385;-72
2022/05/16 00:54:19;;;;;;;11.38;3.50;;;;;;;16.84;56.93;101342.50;4996436;28;20520;-72
2022/05/16 00:56:46;;;;;;;10.80;3.45;;;;;;;16.97;56.69;101346.00;5014523;28;20045;-73
2022/05/16 00:59:12;;;;;;;11.93;3.63;;;;;;;17.01;56.97;101348.00;5013786;28;20476;-73
2022/05/16 01:07:08;;;;;;;11.55;3.50;;;;;;;16.86;57.86;101337.06;5013988;28;20516;-73
2022/05/16 01:09:34;;;;;;;17.40;4.10;;;;;;;16.85;57.43;101338.09;4995706;28;20030;-73
2022/05/16 01:11:59;;;;;;;12.23;3.97;;;;;;;16.92;56.80;101333.63;5013539;28;20021;-73
2022/05/16 01:15:02;;;;;;;13.07;3.30;;;;;;;16.70;57.92;101320.13;5018156;28;20081;-73
2022/05/16 01:17:27;;;;;;;12.60;3.58;;;;;;;16.72;58.58;101331.16;4972568;28;20533;-73
2022/05/16 01:19:53;;;;;;;11.68;3.53;;;;;;;16.50;58.56;101320.28;4991537;28;20042;-72
2022/05/16 01:22:30;;;;;;;14.68;4.40;;;;;;;16.58;58.78;101319.22;4995638;28;20102;-72
2022/05/16 01:24:58;;;;;;;13.88;3.50;;;;;;;16.75;57.75;101319.50;4995665;28;20120;-73
2022/05/16 01:27:23;;;;;;;12.02;3.70;;;;;;;16.68;58.73;101312.50;4995694;28;20021;-72
2022/05/16 01:29:50;;;;;;;14.50;3.63;;;;;;;16.58;58.38;101309.59;4995455;28;20018;-73
2022/05/16 01:32:15;;;;;;;12.52;3.75;;;;;;;16.37;59.34;101307.34;5015174;28;20034;-73
2022/05/16 01:34:41;;;;;;;11.20;3.80;;;;;;;16.24;59.71;101306.44;5016894;28;20022;-73
2022/05/16 01:37:08;;;;;;;10.23;3.55;;;;;;;16.37;58.92;101304.72;5020471;28;20084;-72
2022/05/16 01:39:33;;;;;;;13.20;3.90;;;;;;;16.36;59.18;101300.53;5016709;28;20030;-72
2022/05/16 01:41:58;;;;;;;10.70;3.60;;;;;;;16.34;59.39;101295.53;4998729;28;20033;-72
2022/05/16 01:44:24;;;;;;;15.95;4.18;;;;;;;16.37;59.20;101284.69;4999034;28;20030;-72
2022/05/16 01:46:49;;;;;;;12.93;4.05;;;;;;;16.28;59.70;101285.13;5016651;28;20420;-72
2022/05/16 01:49:15;;;;;;;13.13;3.30;;;;;;;16.31;60.33;101279.50;5016577;28;20034;-73
2022/05/16 01:51:40;;;;;;;11.27;3.53;;;;;;;16.29;60.42;101271.91;4999157;28;20018;-72
2022/05/16 01:54:06;;;;;;;20.38;3.97;;;;;;;16.17;59.86;101271.78;5016511;28;20033;-73
2022/05/16 01:56:33;;;;;;;11.95;3.33;;;;;;;16.14;60.75;101271.38;5016582;28;20415;-73
2022/05/16 01:58:59;;;;;;;12.07;3.60;;;;;;;16.05;61.35;101270.84;5016552;28;20022;-73
2022/05/16 02:01:25;;;;;;;16.02;3.55;;;;;;;16.06;60.45;101272.47;5016473;28;20026;-73
2022/05/16 02:03:50;;;;;;;15.48;3.97;;;;;;;16.25;59.86;101270.72;4999346;28;20591;-73
2022/05/16 02:06:16;;;;;;;13.40;4.00;;;;;;;16.10;60.50;101265.81;4999145;28;20049;-73
2022/05/16 02:08:43;;;;;;;13.45;4.03;;;;;;;15.99;61.06;101267.28;4998871;28;20049;-73
2022/05/16 02:11:08;;;;;;;11.43;3.85;;;;;;;16.21;59.96;101269.56;5016931;28;20068;-73
2022/05/16 02:13:35;;;;;;;11.18;3.90;;;;;;;16.16;60.66;101272.78;5017349;28;20409;-73
2022/05/16 02:16:01;;;;;;;13.23;3.95;;;;;;;16.06;60.70;101256.03;5020285;28;20116;-73
2022/05/16 02:18:28;;;;;;;11.90;3.92;;;;;;;16.09;60.66;101258.22;5003981;28;20073;-73
2022/05/16 02:24:38;;;;;;;15.30;3.90;;;;;;;16.05;61.37;101249.19;5004220;28;20031;-73
2022/05/16 02:26:22;;;;;;;13.07;3.95;;;;;;;15.89;61.33;101250.53;5022457;28;20434;-72
2022/05/16 02:28:48;;;;;;;11.07;3.83;;;;;;;15.89;61.52;101253.13;5003912;28;20061;-73
2022/05/16 02:31:13;;;;;;;12.07;3.80;;;;;;;15.94;61.14;101250.66;5021419;28;20444;-73
2022/05/16 02:33:38;;;;;;;14.43;3.58;;;;;;;15.68;62.11;101252.47;5021620;28;20037;-72
2022/05/16 02:36:04;;;;;;;15.85;4.10;;;;;;;15.75;61.63;101240.19;5004145;28;20034;-72
2022/05/16 02:38:29;;;;;;;14.80;4.07;;;;;;;15.74;61.79;101246.41;5005460;28;20026;-74
2022/05/16 02:40:54;;;;;;;11.80;4.63;;;;;;;15.64;62.13;101248.63;5028753;28;20093;-73
2022/05/16 02:43:19;;;;;;;14.10;3.80;;;;;;;15.70;61.98;101252.22;5013574;28;20065;-73
2022/05/16 02:45:45;;;;;;;11.30;3.72;;;;;;;15.66;62.05;101244.00;5031728;28;20033;-73
2022/05/16 02:48:10;;;;;;;15.15;3.40;;;;;;;15.49;62.53;101230.66;5032748;28;20026;-73
2022/05/16 02:50:36;;;;;;;10.55;3.55;;;;;;;15.70;62.26;101240.00;5033010;28;20060;-73
2022/05/16 02:53:01;;;;;;;13.43;3.60;;;;;;;15.71;62.22;101236.41;5031299;28;20037;-76
2022/05/16 02:55:26;;;;;;;13.63;4.20;;;;;;;15.63;62.68;101247.03;5029942;28;20036;-76
2022/05/16 02:57:52;;;;;;;13.40;3.60;;;;;;;15.65;62.33;101239.00;5029069;28;20022;-75
2022/05/16 03:00:18;;;;;;;14.30;4.20;;;;;;;15.46;62.84;101230.28;5002299;28;20068;-74
2022/05/16 03:02:43;;;;;;;13.35;4.03;;;;;;;15.61;62.57;101228.19;5001503;28;20029;-72
2022/05/16 03:05:10;;;;;;;13.18;3.60;;;;;;;15.55;62.78;101218.63;5001949;28;20022;-72
2022/05/16 03:07:36;;;;;;;16.73;4.50;;;;;;;15.58;62.67;101221.59;5018219;28;20030;-73
2022/05/16 03:10:02;;;;;;;15.95;4.35;;;;;;;15.51;63.27;101225.25;5000629;28;20190;-73
2022/05/16 03:12:28;;;;;;;13.23;3.60;;;;;;;15.52;62.71;101224.25;5017911;28;20156;-72
2022/05/16 03:14:53;;;;;;;14.43;3.97;;;;;;;15.39;63.25;101212.06;5016664;28;20057;-76
2022/05/16 03:17:18;;;;;;;9.63;3.90;;;;;;;15.37;63.50;101219.31;4997938;28;20120;-76
2022/05/16 03:19:44;;;;;;;12.52;3.90;;;;;;;15.33;63.67;101207.69;5015444;28;20105;-76
2022/05/16 03:22:09;;;;;;;14.05;3.88;;;;;;;15.31;63.43;101205.31;5014951;28;20019;-76
2022/05/16 03:24:36;;;;;;;14.63;4.47;;;;;;;15.20;64.12;101203.38;5015101;28;20033;-76
2022/05/16 03:27:02;;;;;;;11.55;4.25;;;;;;;15.31;63.71;101199.31;5014824;28;20026;-77
2022/05/16 03:29:28;;;;;;;14.07;3.95;;;;;;;15.14;64.94;101203.41;4997491;28;20021;-77
2022/05/16 03:31:54;;;;;;;14.32;4.60;;;;;;;15.22;64.65;101201.38;5015186;28;20383;-77
2022/05/16 03:34:20;;;;;;;15.50;4.43;;;;;;;15.30;63.85;101210.72;4997141;28;20028;-77
2022/05/16 03:36:45;;;;;;;14.23;4.05;;;;;;;15.22;64.15;101203.16;5014729;28;20447;-77
2022/05/16 03:41:54;;;;;;;12.85;4.57;;;;;;;15.08;65.26;101205.81;5015016;28;20137;-77
2022/05/16 03:44:20;;;;;;;13.55;4.30;;;;;;;14.97;64.91;101206.47;4996710;28;20030;-76
2022/05/16 03:46:47;;;;;;;13.70;4.15;;;;;;;14.95;65.88;101205.84;5014488;28;20025;-77
2022/05/16 03:49:12;;;;;;;13.07;4.45;;;;;;;14.95;66.07;101212.88;5014905;28;20458;-76
2022/05/16 03:51:38;;;;;;;15.70;4.43;;;;;;;15.10;65.41;101203.00;4996732;28;20032;-76
2022/05/16 03:54:04;;;;;;;16.05;4.53;;;;;;;15.00;65.48;101206.03;5014080;28;20225;-77
2022/05/16 03:56:30;;;;;;;13.45;4.30;;;;;;;14.98;66.10;101195.03;4996646;28;20080;-76
2022/05/16 03:58:56;;;;;;;13.38;4.28;;;;;;;14.94;65.88;101198.28;5014329;28;20030;-77
2022/05/16 04:01:22;;;;;;;14.63;4.50;;;;;;;15.03;65.34;101197.03;5014814;28;20040;-77
2022/05/16 04:03:48;;;;;;;15.57;4.55;;;;;;;15.12;64.67;101198.38;5014525;28;20026;-77
2022/05/16 04:06:13;;;;;;;13.38;4.57;;;;;;;15.15;65.45;101194.56;5016460;28;20022;-78
2022/05/16 04:08:39;;;;;;;13.90;4.40;;;;;;;15.10;65.51;101193.41;4998913;28;20036;-77
2022/05/16 04:11:05;;;;;;;16.92;4.93;;;;;;;15.09;64.56;101183.97;5016332;28;20034;-77
2022/05/16 04:13:30;;;;;;;20.50;4.80;;;;;;;14.98;65.32;101183.84;5014754;28;20100;-77
2022/05/16 04:15:56;;;;;;;14.18;4.40;;;;;;;15.09;64.85;101185.78;4996885;28;20139;-77
2022/05/16 04:18:21;;;;;;;11.80;4.38;;;;;;;15.12;64.63;101191.38;5013269;28;20030;-77
2022/05/16 04:20:46;;;;;;;16.30;4.97;;;;;;;15.12;64.76;101191.38;5014298;28;20113;-77
2022/05/16 04:23:12;;;;;;;15.32;4.30;;;;;;;15.23;64.63;101204.75;5014143;28;20030;-77
2022/05/16 04:25:38;;;;;;;13.82;4.80;;;;;;;15.19;64.43;101196.56;4996416;28;20061;-78
2022/05/16 04:28:08;;;;;;;14.77;4.70;;;;;;;15.16;64.25;101196.97;5014758;28;20446;-78
2022/05/16 04:30:34;;;;;;;14.38;4.55;;;;;;;15.03;65.14;101203.03;4997855;28;20033;-78
2022/05/16 04:33:00;;;;;;;18.65;5.18;;;;;;;15.00;64.83;101198.22;5016187;28;20022;-77
2022/05/16 04:35:26;;;;;;;17.55;5.32;;;;;;;15.01;65.29;101197.22;5017393;28;20084;-78
2022/05/16 04:37:52;;;;;;;11.65;4.57;;;;;;;15.07;65.06;101198.19;5016603;28;20033;-77
2022/05/16 04:40:17;;;;;;;14.82;5.00;;;;;;;15.27;64.59;101195.53;4999341;28;20036;-78
2022/05/16 04:42:46;;;;;;;14.65;4.72;;;;;;;15.19;64.84;101204.38;4998702;28;20064;-78
2022/05/16 04:45:20;;;;;;;15.75;4.57;;;;;;;15.18;65.27;101202.75;5015721;28;20100;-76
2022/05/16 04:47:48;;;;;;;19.27;5.15;;;;;;;15.25;64.72;101205.38;5015374;28;20497;-77
2022/05/16 04:50:17;;;;;;;15.05;4.50;;;;;;;15.33;64.42;101205.09;5014912;28;20099;-77
2022/05/16 04:52:42;;;;;;;16.63;5.15;;;;;;;15.19;64.80;101209.59;5023484;28;20006;-76
2022/05/16 04:55:08;;;;;;;12.02;4.82;;;;;;;15.38;64.64;101207.09;5015080;28;20049;-77
2022/05/16 04:57:34;;;;;;;11.75;5.07;;;;;;;15.58;63.95;101215.59;5015140;28;20381;-77
2022/05/16 05:00:00;;;;;;;12.93;4.72;;;;;;;15.47;64.21;101206.63;5014523;28;20034;-77
2022/05/16 05:02:25;;;;;;;13.80;4.75;;;;;;;15.40;64.54;101208.47;5014490;28;20030;-77
2022/05/16 05:04:51;;;;;;;17.20;4.78;;;;;;;15.42;64.43;101205.66;5014124;28;20136;-77
2022/05/16 05:07:16;;;;;;;19.60;5.30;;;;;;;15.55;63.93;101208.19;5016111;28;20037;-77
2022/05/16 05:15:13;;;;;;;16.73;4.93;;;;;;;15.83;63.25;101199.25;5018198;28;20045;-76
2022/05/16 05:17:39;;;;;;;14.85;5.18;;;;;;;15.97;63.41;101200.75;5000611;28;20021;-76
2022/05/16 05:20:05;;;;;;;19.15;5.00;;;;;;;16.00;62.92;101198.50;5017466;28;20390;-77
2022/05/16 05:22:30;;;;;;;20.40;5.32;;;;;;;16.21;62.59;101196.53;5016448;28;20028;-76
2022/05/16 05:24:55;;;;;;;16.02;5.15;;;;;;;16.34;61.97;101191.22;5000172;28;20034;-77
2022/05/16 05:27:22;;;;;;;11.95;4.75;;;;;;;16.47;61.77;101195.50;5019096;28;20037;-76
2022/05/16 05:29:48;;;;;;;16.00;4.60;;;;;;;16.59;61.22;101195.59;4999684;28;20030;-75
2022/05/16 05:32:14;;;;;;;16.15;5.00;;;;;;;16.73;61.42;101189.22;4999891;28;20029;-77
2022/05/16 05:34:40;;;;;;;12.45;4.30;;;;;;;16.79;61.24;101190.97;5017111;28;20034;-77
2022/05/16 05:37:05;;;;;;;19.08;4.80;;;;;;;17.07;60.07;101195.69;5017360;28;20022;-76
2022/05/16 05:39:31;;;;;;;18.63;5.18;;;;;;;17.35;58.76;101187.28;5004614;28;20029;-77
2022/05/16 05:41:57;;;;;;;19.95;4.70;;;;;;;17.40;59.20;101199.66;5026987;28;20038;-76
2022/05/16 05:44:23;;;;;;;14.02;5.30;;;;;;;17.49;59.47;101203.59;4999344;28;20092;-77
2022/05/16 05:46:48;;;;;;;17.55;4.82;;;;;;;17.99;57.59;101208.50;5016803;28;20030;-76
2022/05/16 05:49:14;;;;;;;13.18;4.38;;;;;;;18.07;56.68;101206.56;5016802;28;20032;-77
2022/05/16 05:51:40;;;;;;;11.35;4.32;;;;;;;22.63;46.86;101188.28;4999388;28;20500;-78
2022/05/16 05:54:06;;;;;;;13.13;4.35;;;;;;;25.39;39.05;101206.44;5016241;28;20033;-78
2022/05/16 05:56:33;;;;;;;14.80;4.70;;;;;;;28.04;33.29;101198.88;5000399;28;20445;-78
2022/05/16 05:58:58;;;;;;;14.70;4.22;;;;;;;28.15;33.37;101200.25;4998836;28;20033;-78
2022/05/16 06:01:25;;;;;;;14.20;3.80;;;;;;;29.64;30.56;101182.66;5007784;28;20034;-78
2022/05/16 06:03:50;;;;;;;18.65;4.00;;;;;;;30.40;30.25;101189.66;5024044;28;20086;-78
2022/05/16 06:06:15;;;;;;;11.82;4.25;;;;;;;30.65;28.87;101177.47;5015619;28;20049;-78
2022/05/16 06:08:41;;;;;;;11.67;3.50;;;;;;;27.04;33.90;101198.34;4998781;28;20030;-78
2022/05/16 06:11:06;;;;;;;9.63;3.63;;;;;;;25.66;37.05;101203.28;5016579;28;20355;-78
2022/05/16 06:13:32;;;;;;;12.80;4.00;;;;;;;25.30;38.17;101198.28;5016026;28;20272;-77
2022/05/16 06:15:57;;;;;;;11.48;3.50;;;;;;;25.57;37.86;101194.38;4997176;28;20048;-78
2022/05/16 06:18:22;;;;;;;12.77;4.38;;;;;;;26.87;35.49;101196.97;5015487;28;20033;-76
2022/05/16 06:20:48;;;;;;;7.40;3.55;;;;;;;26.48;35.21;101202.50;5015703;28;20026;-77
2022/05/16 06:23:13;;;;;;;7.93;3.40;;;;;;;27.67;33.10;101211.97;5015885;28;20508;-76
2022/05/16 06:25:42;;;;;;;11.98;3.83;;;;;;;24.01;39.19;101225.44;4998644;28;20034;-77
2022/05/16 06:28:13;;;;;;;10.20;3.63;;;;;;;23.41;41.58;101219.88;5018609;28;20026;-78
2022/05/16 06:30:42;;;;;;;8.02;3.38;;;;;;;23.05;42.60;101222.44;4999186;28;20036;-77
2022/05/16 06:33:07;;;;;;;8.77;3.60;;;;;;;23.97;40.18;101224.41;4997688;28;20033;-70
2022/05/16 06:35:35;;;;;;;10.18;3.20;;;;;;;24.64;39.82;101217.13;5014969;28;20033;-71
2022/05/16 06:38:21;;;;;;;32.30;4.32;;;;;;;24.83;39.35;101225.22;4997200;28;20390;-70
2022/05/16 06:40:49;;;;;;;11.90;3.65;;;;;;;23.00;42.56;101226.91;5015171;28;20041;-70
2022/05/16 06:43:16;;;;;;;15.38;3.60;;;;;;;21.60;45.91;101213.91;4997107;28;20049;-71
2022/05/16 06:45:41;;;;;;;9.25;3.58;;;;;;;21.09;47.75;101230.97;5015030;28;20018;-71
2022/05/16 06:48:07;;;;;;;9.70;3.42;;;;;;;20.91;48.27;101239.97;5015009;28;20033;-71
2022/05/16 06:50:34;;;;;;;9.93;3.40;;;;;;;20.64;49.07;101242.53;4997147;28;20026;-71
2022/05/16 06:53:00;;;;;;;12.57;3.90;;;;;;;20.43;50.00;101233.56;4997070;28;20018;-71
2022/05/16 06:55:27;;;;;;;13.20;4.05;;;;;;;20.27;50.76;101233.31;5014823;28;20041;-71
2022/05/16 06:57:52;;;;;;;11.25;3.75;;;;;;;20.11;51.75;101238.56;4997666;28;20490;-72
2022/05/16 07:00:19;;;;;;;10.23;3.72;;;;;;;20.11;51.42;101238.56;5014609;28;20037;-70
2022/05/16 07:02:44;;;;;;;6.97;3.35;;;;;;;20.20;51.34;101245.03;5014504;28;20022;-70
2022/05/16 07:05:09;;;;;;;11.88;3.95;;;;;;;19.98;51.36;101252.81;4997677;28;20026;-72
2022/05/16 07:07:35;;;;;;;10.88;3.40;;;;;;;19.90;51.47;101238.25;5015827;28;20033;-71
2022/05/16 07:10:02;;;;;;;10.32;4.05;;;;;;;19.80;52.34;101232.84;5015103;28;20030;-71
2022/05/16 07:12:27;;;;;;;8.93;3.70;;;;;;;19.89;52.21;101238.50;4996983;28;20029;-71
2022/05/16 07:14:53;;;;;;;7.32;3.50;;;;;;;20.00;52.23;101235.03;4996807;28;20026;-71
2022/05/16 07:17:18;;;;;;;9.73;3.47;;;;;;;20.08;51.81;101249.53;5014339;28;20074;-72
2022/05/16 07:19:43;;;;;;;10.73;3.80;;;;;;;20.00;51.99;101240.25;5014386;28;20021;-71
2022/05/16 07:22:10;;;;;;;10.45;3.80;;;;;;;19.89;52.39;101251.63;4996852;28;20026;-71
2022/05/16 07:24:36;;;;;;;6.78;3.40;;;;;;;20.00;52.58;101256.00;5014988;28;20432;-71
2022/05/16 07:29:45;;;;;;;10.32;4.00;;;;;;;19.86;52.83;101247.63;5013611;28;20064;-71
2022/05/16 07:32:12;;;;;;;13.10;4.05;;;;;;;19.75;52.99;101259.00;4996533;28;20046;-72
2022/05/16 07:34:38;;;;;;;8.90;3.90;;;;;;;19.57;53.81;101252.09;4996335;28;20420;-72
2022/05/16 07:37:03;;;;;;;9.90;3.67;;;;;;;19.55;53.37;101254.16;5015137;28;20101;-71
2022/05/16 07:39:29;;;;;;;16.83;4.50;;;;;;;19.66;53.59;101249.91;5020286;28;20034;-71
2022/05/16 07:41:54;;;;;;;10.35;3.92;;;;;;;19.74;52.66;101260.81;5001185;28;20037;-71
2022/05/16 07:44:20;;;;;;;11.50;4.38;;;;;;;19.53;53.77;101258.81;5001306;28;20120;-71
2022/05/16 07:46:45;;;;;;;14.10;4.65;;;;;;;19.63;53.54;101261.63;5000687;28;20037;-71
2022/05/16 07:49:13;;;;;;;14.32;4.25;;;;;;;19.81;53.26;101265.91;5016886;28;20057;-72
2022/05/16 07:51:39;;;;;;;12.93;4.38;;;;;;;19.76;54.13;101263.97;4996315;28;20030;-70
2022/05/16 07:54:04;;;;;;;12.20;3.78;;;;;;;19.84;54.33;101262.81;5013749;28;20026;-70
2022/05/16 07:56:34;;;;;;;17.85;4.53;;;;;;;19.93;53.75;101264.00;5002143;28;20094;-74
2022/05/16 07:59:02;;;;;;;13.38;4.18;;;;;;;20.06;53.28;101270.78;5000311;28;20120;-71
2022/05/16 08:01:28;;;;;;;12.13;4.00;;;;;;;20.02;53.53;101270.47;4998801;28;20473;-70
2022/05/16 08:03:53;;;;;;;11.25;4.40;;;;;;;20.15;53.34;101266.72;4995979;28;20037;-70
2022/05/16 08:06:18;;;;;;;12.82;3.95;;;;;;;20.31;53.24;101272.19;5015699;28;20029;-70
2022/05/16 08:11:28;;;;;;;14.05;4.15;;;;;;;20.31;53.82;101277.44;5014036;28;20040;-71
2022/05/16 08:13:53;;;;;;;10.60;4.15;;;;;;;20.41;53.14;101278.41;4995843;28;20034;-70
2022/05/16 08:16:18;;;;;;;15.02;4.50;;;;;;;20.57;53.35;101276.84;5013467;28;20046;-70
2022/05/16 08:18:44;;;;;;;13.80;4.20;;;;;;;20.73;53.10;101296.22;5013905;28;20025;-70
2022/05/16 08:21:10;;;;;;;17.08;4.35;;;;;;;20.85;53.10;101296.09;5013210;28;20021;-70
2022/05/16 08:23:37;;;;;;;10.70;4.43;;;;;;;20.92;52.97;101297.53;5013393;28;20026;-76
2022/05/16 08:26:04;;;;;;;11.25;4.10;;;;;;;21.28;52.24;101305.03;5013739;28;20022;-78
2022/05/16 08:28:30;;;;;;;10.32;4.10;;;;;;;21.85;50.64;101315.13;5013639;28;20036;-73
2022/05/16 08:30:55;;;;;;;10.95;4.30;;;;;;;22.38;49.46;101318.75;5013359;28;20074;-73
2022/05/16 08:33:21;;;;;;;12.40;4.32;;;;;;;22.60;48.51;101310.72;4995902;28;20022;-73
2022/05/16 08:39:52;;;;;;;22.27;4.30;;;;;;;22.78;48.82;101319.25;4996757;28;20516;-73
2022/05/16 08:41:18;;;;;;;10.07;3.95;;;;;;;21.83;50.43;101314.59;5016935;28;20048;-72
2022/05/16 08:44:21;;;;;;;10.68;4.22;;;;;;;22.58;49.95;101326.00;5005206;28;20026;-74
2022/05/16 08:47:01;;;;;;;15.30;4.13;;;;;;;22.25;50.41;101321.81;5021042;28;20548;-74
2022/05/16 08:49:36;;;;;;;10.40;4.13;;;;;;;22.45;49.57;101327.22;5019365;28;20104;-73
2022/05/16 08:52:10;;;;;;;14.52;4.50;;;;;;;22.44;50.20;101319.56;5001115;28;20396;-74
2022/05/16 08:54:45;;;;;;;10.98;3.95;;;;;;;22.50;49.73;101332.53;5001066;28;20022;-74
2022/05/16 08:57:18;;;;;;;10.55;4.32;;;;;;;22.72;49.53;101321.88;5000902;28;20034;-72
2022/05/16 08:59:52;;;;;;;11.98;4.55;;;;;;;22.52;50.20;101325.16;5018177;28;20021;-72
2022/05/16 09:02:21;;;;;;;13.27;4.60;;;;;;;22.66;49.92;101324.72;5019702;28;20041;-72
2022/05/16 09:05:23;;;;;;;10.70;5.35;;;;;;;22.58;50.25;101314.66;5002755;28;20030;-73
2022/05/16 09:07:51;;;;;;;12.15;4.18;;;;;;;22.80;49.72;101319.81;4997839;28;20107;-78
2022/05/16 09:10:25;;;;;;;14.98;4.50;;;;;;;23.23;49.53;101308.16;5003210;28;20416;-77
2022/05/16 09:13:28;;;;;;;14.27;4.80;;;;;;;24.18;46.82;101307.00;5000210;28;20041;-77
2022/05/16 09:16:12;;;;;;;12.38;5.05;;;;;;;24.43;45.97;101320.22;5016617;28;20452;-76
2022/05/16 09:18:51;;;;;;;16.45;5.07;;;;;;;24.77;45.99;101315.13;4999241;28;20113;-76
2022/05/16 09:21:35;;;;;;;15.82;5.15;;;;;;;25.76;43.20;101314.38;4999197;28;20038;-77
2022/05/16 09:24:12;;;;;;;16.17;4.80;;;;;;;25.93;42.99;101313.25;5017178;28;20038;-78
2022/05/16 09:27:09;;;;;;;10.25;4.65;;;;;;;26.19;42.77;101311.94;4999656;28;20029;-79
2022/05/16 09:29:42;;;;;;;10.18;4.80;;;;;;;25.40;44.27;101309.31;5002901;28;20481;-78
2022/05/16 09:32:12;;;;;;;10.95;4.13;;;;;;;26.28;43.12;101304.97;4999343;28;20025;-78
2022/05/16 09:34:37;;;;;;;18.52;4.80;;;;;;;27.58;42.01;101303.97;4999409;28;20465;-78
2022/05/16 09:37:03;;;;;;;17.77;4.97;;;;;;;27.01;41.30;101319.03;5000133;28;20080;-78
2022/05/16 09:39:33;;;;;;;13.98;4.55;;;;;;;26.58;42.10;101315.56;5016799;28;20034;-77
2022/05/16 09:42:03;;;;;;;17.45;5.25;;;;;;;27.38;40.85;101315.66;5017498;28;20026;-79
2022/05/16 09:44:56;;;;;;;13.50;4.63;;;;;;;27.95;39.65;101306.88;4998493;28;20026;-77
2022/05/16 09:47:26;;;;;;;;;;;;;;;27.98;39.42;101304.41;5016907;28;20112;-78
2022/05/16 09:50:21;;;;;;;10.10;4.55;;;;;;;27.86;38.62;101299.56;4998248;28;20295;-78
2022/05/16 09:53:13;;;;;;;14.05;5.10;;;;;;;27.32;40.53;101316.03;5015469;28;20099;-77
2022/05/16 09:55:48;;;;;;;13.52;5.07;;;;;;;26.78;40.85;101318.78;4998947;28;20117;-76
2022/05/16 09:58:19;;;;;;;10.27;4.55;;;;;;;26.91;40.93;101317.31;5014876;28;20381;-77
2022/05/16 10:01:08;;;;;;;13.13;4.50;;;;;;;26.91;40.80;101321.84;4998157;28;20062;-76
2022/05/16 10:03:42;;;;;;;9.57;3.88;;;;;;;27.22;41.68;101319.63;5015553;28;20022;-71
2022/05/16 10:06:16;;;;;;;19.52;5.07;;;;;;;27.09;41.30;101322.94;5015886;28;20037;-71
2022/05/16 10:08:46;;;;;;;9.43;4.43;;;;;;;27.52;40.85;101318.38;5015403;28;20037;-71
2022/05/16 10:11:18;;;;;;;11.60;4.55;;;;;;;27.20;40.99;101329.72;4997968;28;20037;-72
2022/05/16 10:13:44;;;;;;;12.85;4.82;;;;;;;26.70;42.06;101334.50;4998022;28;20172;-78
2022/05/16 10:16:11;;;;;;;13.05;4.10;;;;;;;27.01;41.48;101343.69;5016177;28;20049;-78
2022/05/16 10:18:45;;;;;;;9.13;4.03;;;;;;;27.85;39.78;101356.44;4998567;28;20029;-78
2022/05/16 10:21:18;;;;;;;13.68;3.85;;;;;;;28.37;38.77;101366.19;5015616;28;20533;-77
2022/05/16 10:23:45;;;;;;;8.63;4.15;;;;;;;28.11;39.49;101374.63;5015574;28;20026;-76
2022/05/16 10:26:18;;;;;;;11.15;5.00;;;;;;;27.31;41.31;101378.13;5015759;28;20033;-77
2022/05/16 10:29:01;;;;;;;16.25;4.40;;;;;;;27.70;40.78;101374.41;4997854;28;20024;-77
2022/05/16 10:34:27;;;;;;;11.10;4.32;;;;;;;29.15;38.72;101373.28;5015442;28;20029;-77
2022/05/16 10:36:55;;;;;;;14.30;4.80;;;;;;;29.78;37.22;101366.34;5015391;28;20030;-77
2022/05/16 10:39:27;;;;;;;9.55;4.32;;;;;;;28.97;38.33;101371.47;5015542;28;20394;-76
2022/05/16 10:42:00;;;;;;;7.32;3.65;;;;;;;29.47;37.38;101382.19;5015206;28;20022;-78
2022/05/16 10:44:31;;;;;;;12.55;4.32;;;;;;;28.11;39.33;101390.56;5015559;28;20025;-77
2022/05/16 10:47:21;;;;;;;7.72;4.57;;;;;;;28.00;39.88;101397.09;4997584;28;20075;-76
2022/05/16 10:49:55;;;;;;;7.95;4.30;;;;;;;28.09;40.93;101400.69;5015482;28;20495;-77
2022/05/16 10:52:23;;;;;;;9.70;4.70;;;;;;;27.79;41.47;101410.66;5015603;28;20760;-78
2022/05/16 10:54:49;;;;;;;13.65;5.07;;;;;;;26.99;42.97;101404.22;5015047;28;20365;-76
2022/05/16 10:57:45;;;;;;;13.00;5.00;;;;;;;26.62;44.03;101407.50;5014953;28;20108;-76
2022/05/16 11:00:14;;;;;;;11.55;4.70;;;;;;;25.86;46.01;101408.84;5014898;28;20080;-76
2022/05/16 11:03:18;;;;;;;15.07;5.22;;;;;;;25.77;46.61;101413.88;4997387;28;20049;-77
2022/05/16 11:06:05;;;;;;;10.95;5.38;;;;;;;25.28;47.78;101427.09;4972847;28;20030;-77
2022/05/16 11:08:52;;;;;;;11.90;4.30;;;;;;;24.98;48.36;101432.16;4957782;28;20031;-77
2022/05/16 11:11:43;;;;;;;9.10;3.60;;;;;;;24.36;50.74;101435.09;5004664;28;20121;-76
2022/05/16 11:14:23;;;;;;;16.45;3.70;;;;;;;24.12;52.06;101434.81;5014756;28;20026;-77
2022/05/16 11:16:52;;;;;;;14.70;3.83;;;;;;;;;;5014380;28;20437;-76
2022/05/16 11:19:38;;;;;;;10.18;3.17;;;;;;;23.43;59.36;101426.91;5014684;28;20481;-77
2022/05/16 11:22:06;;;;;;;15.63;4.20;;;;;;;22.94;65.26;101444.78;5014733;28;20466;-77
2022/05/16 11:24:31;;;;;;;15.15;4.45;;;;;;;22.16;70.94;101429.38;5014644;28;20025;-76
2022/05/16 11:27:09;;;;;;;11.63;5.07;;;;;;;22.13;72.48;101423.81;5014589;28;20029;-77
2022/05/16 11:30:03;;;;;;;20.98;5.10;;;;;;;21.93;77.22;101424.41;5014488;28;20748;-78
2022/05/16 11:32:58;;;;;;;17.63;5.57;;;;;;;21.76;79.31;101437.63;5014515;28;20112;-76
2022/05/16 11:35:32;;;;;;;16.98;5.30;;;;;;;21.36;79.18;101451.81;5013242;28;20038;-77
2022/05/16 11:38:28;;;;;;;16.05;5.40;;;;;;;21.13;81.95;101465.97;4996637;28;20527;-77
2022/05/16 11:41:15;;;;;;;20.20;5.97;;;;;;;20.94;83.50;101463.59;5014163;28;20029;-77
2022/05/16 11:43:46;;;;;;;13.20;5.38;;;;;;;21.27;82.41;101466.44;4996510;28;20030;-77
2022/05/16 11:46:30;;;;;;;12.63;5.22;;;;;;;21.12;82.08;101453.88;5015630;28;20017;-77
2022/05/16 11:49:15;;;;;;;15.25;5.82;;;;;;;20.99;81.71;101462.84;5033751;28;20389;-78
2022/05/16 11:51:57;;;;;;;14.45;5.15;;;;;;;21.39;80.12;101464.50;5014321;28;20034;-78
2022/05/16 11:54:27;;;;;;;14.48;5.10;;;;;;;21.57;80.96;101456.31;5014066;28;20053;-77
2022/05/16 12:02:29;;;;;;;14.20;5.45;;;;;;;21.51;82.41;101464.41;5013631;28;20076;-77